Time,TemperatureF,DewpointF,PressureIn,WindDirection,WindDirectionDegrees,WindSpeedMPH,WindSpeedGustMPH,Humidity,HourlyPrecipIn,Conditions,Clouds,dailyrainin,SoftwareType,DateUTC
2013-08-11 00:01:00,67.1,56.7,30.04,WNW,291,2.0,8.0,69,0.00,,,0.00,meteohub,2013-08-11 04:01:00,
2013-08-11 00:06:00,66.7,56.3,30.04,WNW,299,6.0,8.0,69,0.00,,,0.00,meteohub,2013-08-11 04:06:00,
2013-08-11 00:11:00,66.6,56.1,30.04,WNW,294,2.0,8.0,69,0.00,,,0.00,meteohub,2013-08-11 04:11:00,
2013-08-11 00:16:00,66.4,55.9,30.04,NW,305,3.0,7.0,69,0.00,,,0.00,meteohub,2013-08-11 04:16:00,
2013-08-11 00:21:00,66.0,55.9,30.04,WNW,293,4.0,7.0,70,0.00,,,0.00,meteohub,2013-08-11 04:21:00,
2013-08-11 00:26:00,65.8,55.4,30.04,WNW,295,3.0,7.0,69,0.00,,,0.00,meteohub,2013-08-11 04:26:00,
2013-08-11 00:31:00,65.7,55.2,30.04,WNW,303,2.0,7.0,69,0.00,,,0.00,meteohub,2013-08-11 04:31:00,
2013-08-11 00:36:00,65.5,55.0,30.03,NW,312,1.0,6.0,69,0.00,,,0.00,meteohub,2013-08-11 04:36:00,
2013-08-11 00:41:00,65.1,54.7,30.03,WSW,246,1.0,5.0,69,0.00,,,0.00,meteohub,2013-08-11 04:41:00,
2013-08-11 00:46:00,64.8,55.2,30.04,WNW,293,0.0,4.0,71,0.00,,,0.00,meteohub,2013-08-11 04:46:00,
2013-08-11 00:51:00,64.2,54.7,30.03,WNW,295,1.0,4.0,71,0.00,,,0.00,meteohub,2013-08-11 04:51:00,
2013-08-11 00:56:00,63.7,54.5,30.04,West,281,2.0,3.0,72,0.00,,,0.00,meteohub,2013-08-11 04:56:00,
2013-08-11 01:02:00,63.3,54.5,30.03,WNW,283,2.0,4.0,73,0.00,,,0.00,meteohub,2013-08-11 05:02:00,
2013-08-11 01:06:00,63.0,54.5,30.04,WNW,302,1.0,5.0,74,0.00,,,0.00,meteohub,2013-08-11 05:06:00,
2013-08-11 01:11:00,63.0,54.5,30.04,NW,305,2.0,7.0,74,0.00,,,0.00,meteohub,2013-08-11 05:11:00,
2013-08-11 01:17:00,63.0,54.1,30.04,NW,308,4.0,8.0,73,0.00,,,0.00,meteohub,2013-08-11 05:17:00,
2013-08-11 01:22:00,63.3,53.4,30.04,NW,326,5.0,9.0,70,0.00,,,0.00,meteohub,2013-08-11 05:22:00,
2013-08-11 01:27:00,63.7,53.2,30.04,NW,316,4.0,9.0,69,0.00,,,0.00,meteohub,2013-08-11 05:27:00,
2013-08-11 01:32:00,63.9,53.1,30.04,NW,325,3.0,9.0,68,0.00,,,0.00,meteohub,2013-08-11 05:32:00,
2013-08-11 01:37:00,63.9,53.1,30.04,WNW,295,6.0,7.0,68,0.00,,,0.00,meteohub,2013-08-11 05:37:00,
2013-08-11 01:42:00,63.9,53.1,30.04,WNW,300,8.0,8.0,68,0.00,,,0.00,meteohub,2013-08-11 05:42:00,
2013-08-11 01:47:00,63.9,52.7,30.04,NW,326,6.0,9.0,67,0.00,,,0.00,meteohub,2013-08-11 05:47:00,
2013-08-11 01:52:00,63.9,52.7,30.04,NNW,328,4.0,9.0,67,0.00,,,0.00,meteohub,2013-08-11 05:52:00,
2013-08-11 01:57:00,63.9,52.7,30.04,NW,323,6.0,9.0,67,0.00,,,0.00,meteohub,2013-08-11 05:57:00,
2013-08-11 02:02:00,63.9,52.7,30.04,NNW,330,6.0,9.0,67,0.00,,,0.00,meteohub,2013-08-11 06:02:00,
2013-08-11 02:07:00,63.9,52.3,30.04,WNW,293,4.0,10.0,66,0.00,,,0.00,meteohub,2013-08-11 06:07:00,
2013-08-11 02:12:00,63.7,52.5,30.04,NNW,347,2.0,10.0,67,0.00,,,0.00,meteohub,2013-08-11 06:12:00,
2013-08-11 02:17:00,63.3,51.8,30.04,NNW,336,4.0,10.0,66,0.00,,,0.00,meteohub,2013-08-11 06:17:00,
2013-08-11 02:22:00,63.1,51.6,30.04,NNW,347,5.0,8.0,66,0.00,,,0.00,meteohub,2013-08-11 06:22:00,
2013-08-11 02:27:00,63.1,51.6,30.04,NNW,328,5.0,7.0,66,0.00,,,0.00,meteohub,2013-08-11 06:27:00,
2013-08-11 02:32:00,63.1,51.6,30.04,NNW,328,4.0,8.0,66,0.00,,,0.00,meteohub,2013-08-11 06:32:00,
2013-08-11 02:37:00,63.1,51.6,30.04,NW,324,5.0,8.0,66,0.00,,,0.00,meteohub,2013-08-11 06:37:00,
2013-08-11 02:42:00,63.0,51.4,30.04,North,349,4.0,8.0,66,0.00,,,0.00,meteohub,2013-08-11 06:42:00,
2013-08-11 02:48:00,62.8,51.6,30.04,NNW,333,5.0,8.0,67,0.00,,,0.00,meteohub,2013-08-11 06:48:00,
2013-08-11 02:53:00,62.8,51.3,30.04,NNW,343,6.0,8.0,66,0.00,,,0.00,meteohub,2013-08-11 06:53:00,
2013-08-11 02:58:00,62.8,51.3,30.04,NW,323,3.0,7.0,66,0.00,,,0.00,meteohub,2013-08-11 06:58:00,
2013-08-11 03:03:00,62.8,51.3,30.04,NW,322,2.0,7.0,66,0.00,,,0.00,meteohub,2013-08-11 07:03:00,
2013-08-11 03:08:00,62.6,51.4,30.04,NW,318,5.0,7.0,67,0.00,,,0.00,meteohub,2013-08-11 07:08:00,
2013-08-11 03:13:00,62.4,51.3,30.05,NW,319,5.0,7.0,67,0.00,,,0.00,meteohub,2013-08-11 07:13:00,
2013-08-11 03:18:00,62.2,51.1,30.05,NW,321,2.0,6.0,67,0.00,,,0.00,meteohub,2013-08-11 07:18:00,
2013-08-11 03:23:00,62.1,51.8,30.05,NW,304,0.0,6.0,69,0.00,,,0.00,meteohub,2013-08-11 07:23:00,
2013-08-11 03:28:00,61.5,51.3,30.05,NW,319,2.0,6.0,69,0.00,,,0.00,meteohub,2013-08-11 07:28:00,
2013-08-11 03:33:00,61.3,51.4,30.05,WNW,288,2.0,4.0,70,0.00,,,0.00,meteohub,2013-08-11 07:33:00,
2013-08-11 03:39:00,61.2,51.6,30.05,NW,319,2.0,3.0,71,0.00,,,0.00,meteohub,2013-08-11 07:39:00,
2013-08-11 03:44:00,60.8,51.8,30.05,NW,314,0.0,4.0,72,0.00,,,0.00,meteohub,2013-08-11 07:44:00,
2013-08-11 03:49:00,60.6,52.0,30.05,WNW,299,2.0,4.0,73,0.00,,,0.00,meteohub,2013-08-11 07:49:00,
2013-08-11 03:54:00,60.3,52.0,30.06,NW,314,1.0,4.0,74,0.00,,,0.00,meteohub,2013-08-11 07:54:00,
2013-08-11 03:59:00,60.1,52.2,30.05,NW,308,3.0,4.0,75,0.00,,,0.00,meteohub,2013-08-11 07:59:00,
2013-08-11 04:05:00,59.9,52.0,30.06,North,356,0.0,4.0,75,0.00,,,0.00,meteohub,2013-08-11 08:05:00,
2013-08-11 04:10:00,59.7,51.8,30.05,NNW,334,2.0,4.0,75,0.00,,,0.00,meteohub,2013-08-11 08:10:00,
2013-08-11 04:15:00,59.5,52.0,30.06,NW,318,0.0,4.0,76,0.00,,,0.00,meteohub,2013-08-11 08:15:00,
2013-08-11 04:20:00,59.5,52.0,30.06,NNW,328,0.0,4.0,76,0.00,,,0.00,meteohub,2013-08-11 08:20:00,
2013-08-11 04:25:00,59.5,52.0,30.06,NNW,328,0.0,4.0,76,0.00,,,0.00,meteohub,2013-08-11 08:25:00,
2013-08-11 04:30:00,59.5,52.0,30.06,NNW,340,0.0,4.0,76,0.00,,,0.00,meteohub,2013-08-11 08:30:00,
2013-08-11 04:35:00,59.4,52.2,30.06,NNW,340,0.0,3.0,77,0.00,,,0.00,meteohub,2013-08-11 08:35:00,
2013-08-11 04:40:00,59.2,52.0,30.06,NNW,336,0.0,3.0,77,0.00,,,0.00,meteohub,2013-08-11 08:40:00,
2013-08-11 04:45:00,59.0,52.2,30.06,North,8,0.0,2.0,78,0.00,,,0.00,meteohub,2013-08-11 08:45:00,
2013-08-11 04:50:00,58.8,52.3,30.06,NE,35,0.0,2.0,79,0.00,,,0.00,meteohub,2013-08-11 08:50:00,
2013-08-11 04:55:00,58.5,52.0,30.06,North,6,0.0,2.0,79,0.00,,,0.00,meteohub,2013-08-11 08:55:00,
2013-08-11 05:00:00,58.5,52.3,30.06,North,0,0.0,2.0,80,0.00,,,0.00,meteohub,2013-08-11 09:00:00,
2013-08-11 05:05:00,58.3,52.2,30.06,NNW,335,0.0,2.0,80,0.00,,,0.00,meteohub,2013-08-11 09:05:00,
2013-08-11 05:11:00,58.3,52.2,30.06,NNW,337,0.0,2.0,80,0.00,,,0.00,meteohub,2013-08-11 09:11:00,
2013-08-11 05:16:00,57.7,52.3,30.07,ENE,59,0.0,1.0,82,0.00,,,0.00,meteohub,2013-08-11 09:16:00,
2013-08-11 05:21:00,57.6,52.2,30.07,ENE,57,0.0,1.0,82,0.00,,,0.00,meteohub,2013-08-11 09:21:00,
2013-08-11 05:26:00,57.4,52.3,30.07,North,352,0.0,1.0,83,0.00,,,0.00,meteohub,2013-08-11 09:26:00,
2013-08-11 05:32:00,57.4,52.3,30.07,North,356,0.0,1.0,83,0.00,,,0.00,meteohub,2013-08-11 09:32:00,
2013-08-11 05:37:00,57.0,52.2,30.07,North,356,0.0,1.0,84,0.00,,,0.00,meteohub,2013-08-11 09:37:00,
2013-08-11 05:42:00,56.8,52.0,30.08,North,356,0.0,0.0,84,0.00,,,0.00,meteohub,2013-08-11 09:42:00,
2013-08-11 05:47:00,56.5,52.0,30.08,North,356,0.0,0.0,85,0.00,,,0.00,meteohub,2013-08-11 09:47:00,
2013-08-11 05:52:00,56.1,52.3,30.08,North,356,0.0,0.0,87,0.00,,,0.00,meteohub,2013-08-11 09:52:00,
2013-08-11 05:57:00,55.8,52.3,30.08,North,356,0.0,0.0,88,0.00,,,0.00,meteohub,2013-08-11 09:57:00,
2013-08-11 06:02:00,55.6,52.3,30.09,North,356,0.0,0.0,89,0.00,,,0.00,meteohub,2013-08-11 10:02:00,
2013-08-11 06:07:00,55.6,52.3,30.08,North,4,0.0,1.0,89,0.00,,,0.00,meteohub,2013-08-11 10:07:00,
2013-08-11 06:12:00,55.8,52.5,30.09,North,358,0.0,1.0,89,0.00,,,0.00,meteohub,2013-08-11 10:12:00,
2013-08-11 06:17:00,56.5,53.2,30.09,North,359,0.0,1.0,89,0.00,,,0.00,meteohub,2013-08-11 10:17:00,
2013-08-11 06:22:00,57.0,53.4,30.09,North,358,0.0,1.0,88,0.00,,,0.00,meteohub,2013-08-11 10:22:00,
2013-08-11 06:27:00,57.6,54.0,30.09,North,359,0.0,0.0,88,0.00,,,0.00,meteohub,2013-08-11 10:27:00,
2013-08-11 06:32:00,58.5,54.9,30.09,North,358,0.0,0.0,88,0.00,,,0.00,meteohub,2013-08-11 10:32:00,
2013-08-11 06:37:00,59.2,55.4,30.09,North,0,0.0,0.0,87,0.00,,,0.00,meteohub,2013-08-11 10:37:00,
2013-08-11 06:42:00,60.1,55.6,30.09,North,359,0.0,0.0,85,0.00,,,0.00,meteohub,2013-08-11 10:42:00,
2013-08-11 06:47:00,60.6,55.0,30.09,North,358,0.0,0.0,82,0.00,,,0.00,meteohub,2013-08-11 10:47:00,
2013-08-11 06:52:00,60.8,54.7,30.09,NE,50,0.0,0.0,80,0.00,,,0.00,meteohub,2013-08-11 10:52:00,
2013-08-11 06:57:00,61.0,54.7,30.09,NNE,18,0.0,1.0,80,0.00,,,0.00,meteohub,2013-08-11 10:57:00,
2013-08-11 07:02:00,61.2,54.7,30.10,NW,325,0.0,1.0,79,0.00,,,0.00,meteohub,2013-08-11 11:02:00,
2013-08-11 07:07:00,61.3,54.9,30.09,NNW,345,0.0,2.0,79,0.00,,,0.00,meteohub,2013-08-11 11:07:00,
2013-08-11 07:12:00,61.9,54.9,30.10,NNW,344,0.0,2.0,78,0.00,,,0.00,meteohub,2013-08-11 11:12:00,
2013-08-11 07:17:00,62.1,55.0,30.10,NW,309,0.0,2.0,78,0.00,,,0.00,meteohub,2013-08-11 11:17:00,
2013-08-11 07:23:00,62.6,55.6,30.10,SE,138,0.0,1.0,78,0.00,,,0.00,meteohub,2013-08-11 11:23:00,
2013-08-11 07:28:00,63.5,56.1,30.10,SSE,162,0.0,1.0,77,0.00,,,0.00,meteohub,2013-08-11 11:28:00,
2013-08-11 07:33:00,64.4,56.7,30.10,SSE,163,0.0,1.0,76,0.00,,,0.00,meteohub,2013-08-11 11:33:00,
2013-08-11 07:38:00,64.9,56.8,30.09,SW,217,0.0,1.0,75,0.00,,,0.00,meteohub,2013-08-11 11:38:00,
2013-08-11 07:43:00,66.2,57.2,30.10,SW,215,0.0,1.0,73,0.00,,,0.00,meteohub,2013-08-11 11:43:00,
2013-08-11 07:48:00,66.9,57.6,30.10,NE,41,0.0,0.0,72,0.00,,,0.00,meteohub,2013-08-11 11:48:00,
2013-08-11 07:54:00,66.6,56.5,30.10,NW,307,1.0,0.0,70,0.00,,,0.00,meteohub,2013-08-11 11:54:00,
2013-08-11 07:59:00,66.2,56.5,30.10,NNW,346,3.0,3.0,71,0.00,,,0.00,meteohub,2013-08-11 11:59:00,
2013-08-11 08:04:00,66.2,56.5,30.10,NNE,27,2.0,4.0,71,0.00,,,0.00,meteohub,2013-08-11 12:04:00,
2013-08-11 08:09:00,66.6,56.5,30.10,North,11,0.0,4.0,70,0.00,,,0.00,meteohub,2013-08-11 12:09:00,
2013-08-11 08:14:00,66.9,57.2,30.10,NNE,23,0.0,4.0,71,0.00,,,0.00,meteohub,2013-08-11 12:14:00,
2013-08-11 08:20:00,67.1,57.0,30.10,NW,326,3.0,4.0,70,0.00,,,0.00,meteohub,2013-08-11 12:20:00,
2013-08-11 08:25:00,67.5,57.0,30.10,North,356,3.0,3.0,69,0.00,,,0.00,meteohub,2013-08-11 12:25:00,
2013-08-11 08:30:00,67.6,56.7,30.10,North,356,4.0,4.0,68,0.00,,,0.00,meteohub,2013-08-11 12:30:00,
2013-08-11 08:35:00,68.0,57.4,30.10,NNW,339,3.0,5.0,69,0.00,,,0.00,meteohub,2013-08-11 12:35:00,
2013-08-11 08:40:00,68.4,57.0,30.10,NNW,346,1.0,5.0,67,0.00,,,0.00,meteohub,2013-08-11 12:40:00,
2013-08-11 08:45:00,68.5,56.7,30.10,North,354,5.0,5.0,66,0.00,,,0.00,meteohub,2013-08-11 12:45:00,
2013-08-11 08:50:00,68.9,56.7,30.10,NNW,339,1.0,5.0,65,0.00,,,0.00,meteohub,2013-08-11 12:50:00,
2013-08-11 08:55:00,69.4,57.6,30.10,NW,324,4.0,5.0,66,0.00,,,0.00,meteohub,2013-08-11 12:55:00,
2013-08-11 09:00:00,69.6,55.9,30.10,NE,34,1.0,6.0,62,0.00,,,0.00,meteohub,2013-08-11 13:00:00,
2013-08-11 09:05:00,70.3,56.7,30.10,NNE,33,2.0,6.0,62,0.00,,,0.00,meteohub,2013-08-11 13:05:00,
2013-08-11 09:11:00,70.5,55.9,30.10,NE,52,1.0,6.0,60,0.00,,,0.00,meteohub,2013-08-11 13:11:00,
2013-08-11 09:16:00,71.1,55.9,30.10,NNW,340,4.0,4.0,59,0.00,,,0.00,meteohub,2013-08-11 13:16:00,
2013-08-11 09:21:00,71.1,55.9,30.10,WNW,295,0.0,4.0,59,0.00,,,0.00,meteohub,2013-08-11 13:21:00,
2013-08-11 09:26:00,71.2,54.7,30.10,North,0,4.0,5.0,56,0.00,,,0.00,meteohub,2013-08-11 13:26:00,
2013-08-11 09:31:00,71.6,55.0,30.10,WNW,293,0.0,5.0,56,0.00,,,0.00,meteohub,2013-08-11 13:31:00,
2013-08-11 09:36:00,72.0,54.9,30.10,NNE,20,3.0,5.0,55,0.00,,,0.00,meteohub,2013-08-11 13:36:00,
2013-08-11 09:41:00,71.8,54.7,30.10,North,359,4.0,5.0,55,0.00,,,0.00,meteohub,2013-08-11 13:41:00,
2013-08-11 09:46:00,72.1,55.0,30.10,NW,317,2.0,7.0,55,0.00,,,0.00,meteohub,2013-08-11 13:46:00,
2013-08-11 09:52:00,72.1,54.1,30.10,NE,50,5.0,7.0,53,0.00,,,0.00,meteohub,2013-08-11 13:52:00,
2013-08-11 09:57:00,72.1,54.1,30.10,North,349,2.0,9.0,53,0.00,,,0.00,meteohub,2013-08-11 13:57:00,
2013-08-11 10:02:00,72.1,53.1,30.10,East,100,2.0,9.0,51,0.00,,,0.00,meteohub,2013-08-11 14:02:00,
2013-08-11 10:07:00,72.3,53.2,30.10,NW,304,0.0,9.0,51,0.00,,,0.00,meteohub,2013-08-11 14:07:00,
2013-08-11 10:13:00,72.7,53.4,30.10,NNW,333,4.0,7.0,51,0.00,,,0.00,meteohub,2013-08-11 14:13:00,
2013-08-11 10:18:00,73.0,53.2,30.10,NNE,26,6.0,7.0,50,0.00,,,0.00,meteohub,2013-08-11 14:18:00,
2013-08-11 10:23:00,72.7,52.3,30.10,ESE,108,2.0,7.0,49,0.00,,,0.00,meteohub,2013-08-11 14:23:00,
2013-08-11 10:28:00,72.7,52.9,30.10,ENE,65,4.0,7.0,50,0.00,,,0.00,meteohub,2013-08-11 14:28:00,
2013-08-11 10:34:00,73.2,52.9,30.10,WNW,300,5.0,7.0,49,0.00,,,0.00,meteohub,2013-08-11 14:34:00,
2013-08-11 10:39:00,73.4,52.5,30.10,NW,325,4.0,8.0,48,0.00,,,0.00,meteohub,2013-08-11 14:39:00,
2013-08-11 10:44:00,73.8,53.4,30.10,SE,138,0.0,8.0,49,0.00,,,0.00,meteohub,2013-08-11 14:44:00,
2013-08-11 10:49:00,74.8,53.8,30.09,NNW,346,0.0,8.0,48,0.00,,,0.00,meteohub,2013-08-11 14:49:00,
2013-08-11 10:54:00,74.5,53.4,30.09,WNW,302,4.0,8.0,48,0.00,,,0.00,meteohub,2013-08-11 14:54:00,
2013-08-11 10:59:00,74.1,53.8,30.09,WSW,256,2.0,8.0,49,0.00,,,0.00,meteohub,2013-08-11 14:59:00,
2013-08-11 11:04:00,74.1,54.9,30.10,NNW,333,0.0,8.0,51,0.00,,,0.00,meteohub,2013-08-11 15:04:00,
2013-08-11 11:10:00,74.8,55.6,30.09,NNE,19,3.0,8.0,51,0.00,,,0.00,meteohub,2013-08-11 15:10:00,
2013-08-11 11:15:00,75.0,55.0,30.09,SW,217,1.0,7.0,50,0.00,,,0.00,meteohub,2013-08-11 15:15:00,
2013-08-11 11:20:00,74.5,58.3,30.09,SW,225,8.0,8.0,57,0.00,,,0.00,meteohub,2013-08-11 15:20:00,
2013-08-11 11:25:00,73.6,58.8,30.09,South,179,5.0,9.0,60,0.00,,,0.00,meteohub,2013-08-11 15:25:00,
2013-08-11 11:30:00,73.2,58.5,30.09,SW,226,7.0,9.0,60,0.00,,,0.00,meteohub,2013-08-11 15:30:00,
2013-08-11 11:36:00,72.9,57.7,30.09,SSW,194,5.0,9.0,59,0.00,,,0.00,meteohub,2013-08-11 15:36:00,
2013-08-11 11:41:00,73.0,57.9,30.09,South,190,7.0,9.0,59,0.00,,,0.00,meteohub,2013-08-11 15:41:00,
2013-08-11 11:46:00,72.9,58.1,30.09,SW,214,9.0,12.0,60,0.00,,,0.00,meteohub,2013-08-11 15:46:00,
2013-08-11 11:51:00,72.7,57.9,30.09,South,181,8.0,12.0,60,0.00,,,0.00,meteohub,2013-08-11 15:51:00,
2013-08-11 11:56:00,72.7,57.6,30.09,SW,220,6.0,12.0,59,0.00,,,0.00,meteohub,2013-08-11 15:56:00,
2013-08-11 12:01:00,72.7,57.6,30.09,South,186,7.0,11.0,59,0.00,,,0.00,meteohub,2013-08-11 16:01:00,
2013-08-11 12:06:00,72.3,57.7,30.09,SW,214,11.0,13.0,60,0.00,,,0.00,meteohub,2013-08-11 16:06:00,
2013-08-11 12:12:00,72.3,58.1,30.09,SSW,197,8.0,15.0,61,0.00,,,0.00,meteohub,2013-08-11 16:12:00,
2013-08-11 12:17:00,72.3,57.7,30.09,South,187,9.0,15.0,60,0.00,,,0.00,meteohub,2013-08-11 16:17:00,
2013-08-11 12:22:00,72.7,58.5,30.09,SSW,205,9.0,13.0,61,0.00,,,0.00,meteohub,2013-08-11 16:22:00,
2013-08-11 12:27:00,72.5,56.5,30.08,South,172,8.0,12.0,57,0.00,,,0.00,meteohub,2013-08-11 16:27:00,
2013-08-11 12:32:00,72.0,57.7,30.08,South,190,10.0,13.0,61,0.00,,,0.00,meteohub,2013-08-11 16:32:00,
2013-08-11 12:37:00,72.0,58.6,30.08,SSE,167,10.0,13.0,63,0.00,,,0.00,meteohub,2013-08-11 16:37:00,
2013-08-11 12:42:00,72.3,59.0,30.08,SSE,163,6.0,13.0,63,0.00,,,0.00,meteohub,2013-08-11 16:42:00,
2013-08-11 12:47:00,72.3,57.7,30.08,SW,215,13.0,13.0,60,0.00,,,0.00,meteohub,2013-08-11 16:47:00,
2013-08-11 12:52:00,72.3,58.6,30.08,SSW,198,9.0,13.0,62,0.00,,,0.00,meteohub,2013-08-11 16:52:00,
2013-08-11 12:57:00,72.1,59.4,30.08,SW,214,11.0,14.0,64,0.00,,,0.00,meteohub,2013-08-11 16:57:00,
2013-08-11 13:02:00,71.8,59.0,30.08,SW,215,12.0,14.0,64,0.00,,,0.00,meteohub,2013-08-11 17:02:00,
2013-08-11 13:07:00,71.6,58.3,30.08,SSW,200,13.0,16.0,63,0.00,,,0.00,meteohub,2013-08-11 17:07:00,
2013-08-11 13:12:00,71.6,59.2,30.08,SSW,194,10.0,16.0,65,0.00,,,0.00,meteohub,2013-08-11 17:12:00,
2013-08-11 13:17:00,72.1,57.6,30.08,SSW,203,8.0,16.0,60,0.00,,,0.00,meteohub,2013-08-11 17:17:00,
2013-08-11 13:22:00,72.9,58.1,30.07,South,186,17.0,17.0,60,0.00,,,0.00,meteohub,2013-08-11 17:22:00,
2013-08-11 13:27:00,72.7,57.9,30.07,SSW,210,10.0,17.0,60,0.00,,,0.00,meteohub,2013-08-11 17:27:00,
2013-08-11 13:32:00,72.7,59.4,30.07,SSW,195,12.0,17.0,63,0.00,,,0.00,meteohub,2013-08-11 17:32:00,
2013-08-11 13:37:00,72.7,57.0,30.07,SW,217,9.0,19.0,58,0.00,,,0.00,meteohub,2013-08-11 17:37:00,
2013-08-11 13:42:00,72.9,57.7,30.07,SSW,200,12.0,19.0,59,0.00,,,0.00,meteohub,2013-08-11 17:42:00,
2013-08-11 13:47:00,72.9,58.6,30.07,SSW,212,9.0,19.0,61,0.00,,,0.00,meteohub,2013-08-11 17:47:00,
2013-08-11 13:53:00,73.0,58.3,30.06,SW,215,13.0,17.0,60,0.00,,,0.00,meteohub,2013-08-11 17:53:00,
2013-08-11 13:58:00,73.2,55.6,30.07,SW,214,8.0,17.0,54,0.00,,,0.00,meteohub,2013-08-11 17:58:00,
2013-08-11 14:03:00,73.4,55.2,30.07,SSW,211,14.0,17.0,53,0.00,,,0.00,meteohub,2013-08-11 18:03:00,
2013-08-11 14:09:00,73.2,56.1,30.07,SSW,197,11.0,19.0,55,0.00,,,0.00,meteohub,2013-08-11 18:09:00,
2013-08-11 14:14:00,73.0,56.5,30.07,SSW,207,13.0,19.0,56,0.00,,,0.00,meteohub,2013-08-11 18:14:00,
2013-08-11 14:19:00,72.9,57.2,30.06,SSW,207,10.0,19.0,58,0.00,,,0.00,meteohub,2013-08-11 18:19:00,
2013-08-11 14:24:00,72.9,57.2,30.06,SSW,204,12.0,18.0,58,0.00,,,0.00,meteohub,2013-08-11 18:24:00,
2013-08-11 14:29:00,73.0,58.3,30.07,SW,214,14.0,18.0,60,0.00,,,0.00,meteohub,2013-08-11 18:29:00,
2013-08-11 14:35:00,73.0,58.8,30.06,SW,231,7.0,18.0,61,0.00,,,0.00,meteohub,2013-08-11 18:35:00,
2013-08-11 14:40:00,73.0,57.4,30.06,SSW,210,9.0,18.0,58,0.00,,,0.00,meteohub,2013-08-11 18:40:00,
2013-08-11 14:45:00,73.2,57.6,30.06,SSW,201,6.0,17.0,58,0.00,,,0.00,meteohub,2013-08-11 18:45:00,
2013-08-11 14:50:00,73.4,57.7,30.06,SSW,210,9.0,17.0,58,0.00,,,0.00,meteohub,2013-08-11 18:50:00,
2013-08-11 14:55:00,73.2,57.6,30.06,SW,215,12.0,17.0,58,0.00,,,0.00,meteohub,2013-08-11 18:55:00,
2013-08-11 15:00:00,73.2,57.0,30.06,WSW,238,14.0,16.0,57,0.00,,,0.00,meteohub,2013-08-11 19:00:00,
2013-08-11 15:06:00,73.2,58.1,30.06,SW,221,10.0,17.0,59,0.00,,,0.00,meteohub,2013-08-11 19:06:00,
2013-08-11 15:11:00,73.6,57.9,30.06,South,191,9.0,17.0,58,0.00,,,0.00,meteohub,2013-08-11 19:11:00,
2013-08-11 15:16:00,73.6,57.9,30.06,SW,217,11.0,17.0,58,0.00,,,0.00,meteohub,2013-08-11 19:16:00,
2013-08-11 15:21:00,73.6,57.4,30.05,SSW,203,12.0,17.0,57,0.00,,,0.00,meteohub,2013-08-11 19:21:00,
2013-08-11 15:27:00,73.8,58.5,30.06,SW,236,12.0,17.0,59,0.00,,,0.00,meteohub,2013-08-11 19:27:00,
2013-08-11 15:32:00,73.8,56.7,30.05,WSW,239,15.0,17.0,55,0.00,,,0.00,meteohub,2013-08-11 19:32:00,
2013-08-11 15:37:00,73.8,57.0,30.05,SSW,197,11.0,17.0,56,0.00,,,0.00,meteohub,2013-08-11 19:37:00,
2013-08-11 15:42:00,73.9,57.2,30.05,SSW,210,10.0,18.0,56,0.00,,,0.00,meteohub,2013-08-11 19:42:00,
2013-08-11 15:47:00,73.9,57.2,30.05,SSW,211,14.0,18.0,56,0.00,,,0.00,meteohub,2013-08-11 19:47:00,
2013-08-11 15:52:00,74.1,56.8,30.05,SW,218,15.0,18.0,55,0.00,,,0.00,meteohub,2013-08-11 19:52:00,
2013-08-11 15:57:00,73.9,56.8,30.05,SSW,208,15.0,18.0,55,0.00,,,0.00,meteohub,2013-08-11 19:57:00,
2013-08-11 16:02:00,73.9,56.8,30.05,SSW,201,6.0,18.0,55,0.00,,,0.00,meteohub,2013-08-11 20:02:00,
2013-08-11 16:07:00,73.9,56.3,30.05,West,278,11.0,19.0,54,0.00,,,0.00,meteohub,2013-08-11 20:07:00,
2013-08-11 16:12:00,74.1,56.8,30.05,WSW,246,7.0,19.0,55,0.00,,,0.00,meteohub,2013-08-11 20:12:00,
2013-08-11 16:17:00,74.3,57.0,30.05,SSW,207,8.0,19.0,55,0.00,,,0.00,meteohub,2013-08-11 20:17:00,
2013-08-11 16:23:00,74.3,59.5,30.05,SW,225,13.0,16.0,60,0.00,,,0.00,meteohub,2013-08-11 20:23:00,
2013-08-11 16:28:00,73.9,58.6,30.05,SSW,200,10.0,16.0,59,0.00,,,0.00,meteohub,2013-08-11 20:28:00,
2013-08-11 16:33:00,73.6,59.7,30.05,SSW,204,13.0,18.0,62,0.00,,,0.00,meteohub,2013-08-11 20:33:00,
2013-08-11 16:38:00,73.0,59.2,30.05,SSW,207,13.0,18.0,62,0.00,,,0.00,meteohub,2013-08-11 20:38:00,
2013-08-11 16:43:00,72.7,59.4,30.05,SW,232,11.0,18.0,63,0.00,,,0.00,meteohub,2013-08-11 20:43:00,
2013-08-11 16:48:00,72.7,59.7,30.05,SW,219,10.0,19.0,64,0.00,,,0.00,meteohub,2013-08-11 20:48:00,
2013-08-11 16:53:00,72.9,59.0,30.05,SW,225,9.0,19.0,62,0.00,,,0.00,meteohub,2013-08-11 20:53:00,
2013-08-11 16:58:00,73.0,59.2,30.05,South,188,7.0,19.0,62,0.00,,,0.00,meteohub,2013-08-11 20:58:00,
2013-08-11 17:07:00,72.9,59.0,30.05,SW,222,10.0,15.0,62,0.00,,,0.00,meteohub,2013-08-11 21:07:00,
2013-08-11 17:12:00,72.3,59.0,30.04,SSW,210,9.0,18.0,63,0.00,,,0.00,meteohub,2013-08-11 21:12:00,
2013-08-11 17:17:00,72.3,59.0,30.05,SSW,205,9.0,18.0,63,0.00,,,0.00,meteohub,2013-08-11 21:17:00,
2013-08-11 17:23:00,72.5,59.2,30.04,SW,222,8.0,18.0,63,0.00,,,0.00,meteohub,2013-08-11 21:23:00,
2013-08-11 17:28:00,72.3,59.0,30.05,WSW,249,9.0,16.0,63,0.00,,,0.00,meteohub,2013-08-11 21:28:00,
2013-08-11 17:33:00,72.3,59.0,30.05,SSW,197,9.0,17.0,63,0.00,,,0.00,meteohub,2013-08-11 21:33:00,
2013-08-11 17:38:00,72.1,59.7,30.05,SW,225,14.0,17.0,65,0.00,,,0.00,meteohub,2013-08-11 21:38:00,
2013-08-11 17:43:00,72.0,59.9,30.05,South,186,8.0,17.0,66,0.00,,,0.00,meteohub,2013-08-11 21:43:00,
2013-08-11 17:48:00,71.8,60.3,30.05,WSW,239,11.0,17.0,67,0.00,,,0.00,meteohub,2013-08-11 21:48:00,
2013-08-11 17:54:00,71.8,60.3,30.05,SW,233,7.0,17.0,67,0.00,,,0.00,meteohub,2013-08-11 21:54:00,
2013-08-11 17:58:00,72.0,59.5,30.05,SW,221,3.0,16.0,65,0.00,,,0.00,meteohub,2013-08-11 21:58:00,
2013-08-11 18:05:00,72.0,58.3,30.05,SW,220,10.0,14.0,62,0.00,,,0.00,meteohub,2013-08-11 22:05:00,
2013-08-11 18:10:00,72.0,58.6,30.04,SW,235,2.0,14.0,63,0.00,,,0.00,meteohub,2013-08-11 22:10:00,
2013-08-11 18:16:00,72.0,58.6,30.04,SW,224,3.0,15.0,63,0.00,,,0.00,meteohub,2013-08-11 22:16:00,
2013-08-11 18:21:00,71.6,57.9,30.05,SW,226,7.0,15.0,62,0.00,,,0.00,meteohub,2013-08-11 22:21:00,
2013-08-11 18:26:00,71.4,58.6,30.05,SSW,201,10.0,16.0,64,0.00,,,0.00,meteohub,2013-08-11 22:26:00,
2013-08-11 18:31:00,71.2,59.4,30.05,South,191,8.0,16.0,66,0.00,,,0.00,meteohub,2013-08-11 22:31:00,
2013-08-11 18:36:00,71.2,59.7,30.04,South,177,8.0,14.0,67,0.00,,,0.00,meteohub,2013-08-11 22:36:00,
2013-08-11 18:41:00,71.1,59.2,30.04,SSW,211,6.0,13.0,66,0.00,,,0.00,meteohub,2013-08-11 22:41:00,
2013-08-11 18:46:00,70.9,59.4,30.04,SW,231,6.0,13.0,67,0.00,,,0.00,meteohub,2013-08-11 22:46:00,
2013-08-11 18:51:00,70.7,59.5,30.05,SSW,198,5.0,13.0,68,0.00,,,0.00,meteohub,2013-08-11 22:51:00,
2013-08-11 18:57:00,70.9,60.3,30.05,SW,219,5.0,13.0,69,0.00,,,0.00,meteohub,2013-08-11 22:57:00,
2013-08-11 19:02:00,70.9,60.6,30.05,SSW,212,3.0,12.0,70,0.00,,,0.00,meteohub,2013-08-11 23:02:00,
2013-08-11 19:07:00,70.9,61.0,30.05,SSW,193,7.0,10.0,71,0.00,,,0.00,meteohub,2013-08-11 23:07:00,
2013-08-11 19:12:00,70.3,61.3,30.05,SSW,211,4.0,9.0,73,0.00,,,0.00,meteohub,2013-08-11 23:12:00,
2013-08-11 19:17:00,70.3,61.7,30.05,WSW,245,5.0,10.0,74,0.00,,,0.00,meteohub,2013-08-11 23:17:00,
2013-08-11 19:23:00,70.0,62.1,30.05,WSW,257,2.0,10.0,76,0.00,,,0.00,meteohub,2013-08-11 23:23:00,
2013-08-11 19:28:00,69.6,61.7,30.05,SSW,200,5.0,10.0,76,0.00,,,0.00,meteohub,2013-08-11 23:28:00,
2013-08-11 19:33:00,69.4,61.9,30.05,SW,228,4.0,10.0,77,0.00,,,0.00,meteohub,2013-08-11 23:33:00,
2013-08-11 19:38:00,69.1,61.9,30.05,SSW,193,3.0,8.0,78,0.00,,,0.00,meteohub,2013-08-11 23:38:00,
2013-08-11 19:44:00,68.7,62.2,30.05,SW,230,2.0,8.0,80,0.00,,,0.00,meteohub,2013-08-11 23:44:00,
2013-08-11 19:49:00,68.5,62.4,30.05,WSW,240,5.0,8.0,81,0.00,,,0.00,meteohub,2013-08-11 23:49:00,
2013-08-11 19:54:00,68.4,63.0,30.05,SW,229,1.0,8.0,83,0.00,,,0.00,meteohub,2013-08-11 23:54:00,
2013-08-11 19:59:00,68.2,62.8,30.05,SW,230,5.0,7.0,83,0.00,,,0.00,meteohub,2013-08-11 23:59:00,
2013-08-11 20:04:00,67.8,62.8,30.05,SW,215,2.0,7.0,84,0.00,,,0.00,meteohub,2013-08-12 00:04:00,
2013-08-11 20:09:00,67.6,62.6,30.05,SW,232,1.0,6.0,84,0.00,,,0.00,meteohub,2013-08-12 00:09:00,
2013-08-11 20:14:00,67.5,62.8,30.05,SW,221,5.0,6.0,85,0.00,,,0.00,meteohub,2013-08-12 00:14:00,
2013-08-11 20:19:00,67.3,62.6,30.05,SW,222,4.0,5.0,85,0.00,,,0.00,meteohub,2013-08-12 00:19:00,
2013-08-11 20:24:00,67.3,63.0,30.05,WSW,238,3.0,5.0,86,0.00,,,0.00,meteohub,2013-08-12 00:24:00,
2013-08-11 20:30:00,67.1,62.8,30.05,SSW,210,6.0,7.0,86,0.00,,,0.00,meteohub,2013-08-12 00:30:00,
2013-08-11 20:35:00,67.1,62.8,30.05,SW,222,5.0,7.0,86,0.00,,,0.00,meteohub,2013-08-12 00:35:00,
2013-08-11 20:40:00,66.9,62.6,30.06,SW,224,3.0,8.0,86,0.00,,,0.00,meteohub,2013-08-12 00:40:00,
2013-08-11 20:46:00,66.9,62.6,30.06,WSW,245,1.0,8.0,86,0.00,,,0.00,meteohub,2013-08-12 00:46:00,
2013-08-11 20:51:00,66.7,62.4,30.06,SW,218,1.0,8.0,86,0.00,,,0.00,meteohub,2013-08-12 00:51:00,
2013-08-11 20:56:00,66.6,62.6,30.06,WSW,253,4.0,8.0,87,0.00,,,0.00,meteohub,2013-08-12 00:56:00,
2013-08-11 21:01:00,66.4,62.4,30.06,SSW,210,2.0,5.0,87,0.00,,,0.00,meteohub,2013-08-12 01:01:00,
2013-08-11 21:06:00,66.4,62.8,30.07,SW,225,3.0,6.0,88,0.00,,,0.00,meteohub,2013-08-12 01:06:00,
2013-08-11 21:11:00,66.4,62.8,30.07,WSW,240,2.0,6.0,88,0.00,,,0.00,meteohub,2013-08-12 01:11:00,
2013-08-11 21:17:00,66.4,62.8,30.07,SW,225,3.0,5.0,88,0.00,,,0.00,meteohub,2013-08-12 01:17:00,
2013-08-11 21:22:00,66.6,63.0,30.07,WSW,238,2.0,6.0,88,0.00,,,0.00,meteohub,2013-08-12 01:22:00,
2013-08-11 21:27:00,66.4,62.8,30.07,SW,230,2.0,7.0,88,0.00,,,0.00,meteohub,2013-08-12 01:27:00,
2013-08-11 21:32:00,66.4,62.8,30.07,WSW,248,0.0,7.0,88,0.00,,,0.00,meteohub,2013-08-12 01:32:00,
2013-08-11 21:37:00,66.2,62.6,30.08,SW,217,1.0,6.0,88,0.00,,,0.00,meteohub,2013-08-12 01:37:00,
2013-08-11 21:42:00,66.0,62.6,30.08,WSW,251,1.0,5.0,89,0.00,,,0.00,meteohub,2013-08-12 01:42:00,
2013-08-11 21:47:00,66.0,62.6,30.08,SW,226,0.0,4.0,89,0.00,,,0.00,meteohub,2013-08-12 01:47:00,
2013-08-11 21:52:00,66.0,63.0,30.08,SSW,201,0.0,4.0,90,0.00,,,0.00,meteohub,2013-08-12 01:52:00,
2013-08-11 21:57:00,65.8,62.8,30.08,WSW,252,0.0,3.0,90,0.00,,,0.00,meteohub,2013-08-12 01:57:00,
2013-08-11 22:02:00,65.8,63.1,30.08,SW,215,3.0,3.0,91,0.00,,,0.00,meteohub,2013-08-12 02:02:00,
2013-08-11 22:07:00,65.8,63.1,30.08,SSW,212,4.0,4.0,91,0.00,,,0.00,meteohub,2013-08-12 02:07:00,
2013-08-11 22:12:00,66.0,63.7,30.08,SSW,207,2.0,4.0,92,0.00,,,0.00,meteohub,2013-08-12 02:12:00,
2013-08-11 22:17:00,65.8,63.1,30.08,WSW,245,2.0,4.0,91,0.00,,,0.00,meteohub,2013-08-12 02:17:00,
2013-08-11 22:22:00,65.7,63.0,30.08,SW,233,2.0,4.0,91,0.00,,,0.00,meteohub,2013-08-12 02:22:00,
2013-08-11 22:28:00,65.7,63.3,30.07,WSW,246,1.0,4.0,92,0.00,,,0.00,meteohub,2013-08-12 02:28:00,
2013-08-11 22:33:00,65.5,63.1,30.07,SW,225,0.0,4.0,92,0.00,,,0.00,meteohub,2013-08-12 02:33:00,
2013-08-11 22:38:00,65.5,63.1,30.08,SW,236,3.0,3.0,92,0.00,,,0.00,meteohub,2013-08-12 02:38:00,
2013-08-11 22:43:00,65.5,63.3,30.07,SSW,207,0.0,4.0,93,0.00,,,0.00,meteohub,2013-08-12 02:43:00,
2013-08-11 22:48:00,65.3,63.1,30.07,West,274,1.0,4.0,93,0.00,,,0.00,meteohub,2013-08-12 02:48:00,
2013-08-11 22:53:00,65.1,63.0,30.07,WSW,257,0.0,4.0,93,0.00,,,0.00,meteohub,2013-08-12 02:53:00,
2013-08-11 22:59:00,65.1,63.0,30.07,WSW,245,0.0,2.0,93,0.00,,,0.00,meteohub,2013-08-12 02:59:00,
2013-08-11 23:04:00,64.9,62.8,30.07,WSW,255,0.0,1.0,93,0.00,,,0.00,meteohub,2013-08-12 03:04:00,
2013-08-11 23:09:00,64.9,63.1,30.07,SW,231,0.0,2.0,94,0.00,,,0.00,meteohub,2013-08-12 03:09:00,
2013-08-11 23:15:00,64.9,63.1,30.07,SW,229,0.0,2.0,94,0.00,,,0.00,meteohub,2013-08-12 03:15:00,
2013-08-11 23:20:00,64.9,63.1,30.07,SW,228,0.0,1.0,94,0.00,,,0.00,meteohub,2013-08-12 03:20:00,
2013-08-11 23:25:00,64.8,63.0,30.07,SSW,198,0.0,1.0,94,0.00,,,0.00,meteohub,2013-08-12 03:25:00,
2013-08-11 23:32:00,64.6,62.8,30.07,SSW,195,0.0,1.0,94,0.00,,,0.00,meteohub,2013-08-12 03:32:00,
2013-08-11 23:37:00,64.4,63.0,30.07,WSW,240,0.0,0.0,95,0.00,,,0.00,meteohub,2013-08-12 03:37:00,
2013-08-11 23:42:00,64.2,62.8,30.07,WSW,242,0.0,0.0,95,0.00,,,0.00,meteohub,2013-08-12 03:42:00,
2013-08-11 23:47:00,64.2,62.8,30.07,SSW,205,0.0,0.0,95,0.00,,,0.00,meteohub,2013-08-12 03:47:00,
2013-08-11 23:52:00,64.2,62.8,30.06,South,190,0.0,1.0,95,0.00,,,0.00,meteohub,2013-08-12 03:52:00,
2013-08-11 23:57:00,63.9,62.8,30.06,South,191,0.0,1.0,96,0.00,,,0.00,meteohub,2013-08-12 03:57:00,